createdAt,value
2022-11-19T00:02:10.604Z,12.93
2022-11-19T00:04:43.986Z,13.73
2022-11-19T00:07:19.821Z,12.73
2022-11-19T00:09:52.712Z,11.07
2022-11-19T00:12:49.708Z,12.93
2022-11-19T00:15:22.756Z,12.10
2022-11-19T00:17:55.693Z,11.00
2022-11-19T00:20:28.978Z,11.13
2022-11-19T00:23:04.274Z,12.33
2022-11-19T00:25:37.106Z,12.67
2022-11-19T00:28:13.956Z,10.00
2022-11-19T00:30:48.487Z,9.03
2022-11-19T00:33:21.592Z,9.77
2022-11-19T00:35:56.399Z,10.03
2022-11-19T00:38:30.800Z,12.47
2022-11-19T00:41:03.763Z,14.03
2022-11-19T00:43:50.487Z,14.83
2022-11-19T00:46:25.648Z,17.57
2022-11-19T00:49:03.834Z,17.30
2022-11-19T00:51:38.895Z,18.00
2022-11-19T00:54:11.782Z,17.17
2022-11-19T00:56:44.757Z,14.27
2022-11-19T00:59:19.406Z,15.13
2022-11-19T01:01:52.608Z,16.13
2022-11-19T01:04:25.450Z,13.00
2022-11-19T01:06:58.403Z,16.23
2022-11-19T01:09:31.103Z,16.10
2022-11-19T01:12:03.892Z,13.77
2022-11-19T01:14:38.115Z,13.30
2022-11-19T01:17:13.017Z,15.33
2022-11-19T01:19:47.656Z,14.83
2022-11-19T01:22:20.485Z,15.23
2022-11-19T01:24:55.745Z,14.70
2022-11-19T01:27:28.628Z,14.23
2022-11-19T01:30:03.151Z,14.53
2022-11-19T01:32:36.102Z,14.93
2022-11-19T01:35:09.684Z,18.03
2022-11-19T01:37:42.894Z,18.60
2022-11-19T01:40:16.090Z,15.13
2022-11-19T01:42:53.836Z,16.47
2022-11-19T01:45:34.038Z,17.03
2022-11-19T01:48:08.867Z,16.37
2022-11-19T01:50:43.689Z,15.37
2022-11-19T01:53:19.001Z,15.57
2022-11-19T01:55:55.653Z,16.13
2022-11-19T01:58:28.535Z,18.03
2022-11-19T02:01:05.472Z,15.80
2022-11-19T02:03:39.847Z,15.13
2022-11-19T02:06:12.917Z,17.90
2022-11-19T02:08:47.245Z,13.67
2022-11-19T02:11:43.922Z,13.10
2022-11-19T02:14:26.590Z,16.77
2022-11-19T02:17:04.907Z,16.23
2022-11-19T02:20:10.867Z,15.40
2022-11-19T02:22:59.496Z,15.57
2022-11-19T02:25:39.283Z,13.53
2022-11-19T02:28:25.605Z,13.43
2022-11-19T02:31:04.459Z,12.17
2022-11-19T02:33:43.771Z,17.10
2022-11-19T02:36:20.078Z,11.00
2022-11-19T02:38:56.581Z,11.13
2022-11-19T02:41:37.360Z,12.83
2022-11-19T02:44:33.306Z,13.20
2022-11-19T02:47:08.929Z,13.50
2022-11-19T02:49:43.978Z,10.80
2022-11-19T02:52:19.917Z,13.37
2022-11-19T02:54:52.960Z,11.93
2022-11-19T02:57:25.728Z,9.80
2022-11-19T03:00:17.996Z,12.20
2022-11-19T03:03:13.085Z,10.80
2022-11-19T03:05:47.705Z,9.53
2022-11-19T03:08:20.792Z,11.50
2022-11-19T03:11:00.697Z,11.47
2022-11-19T03:13:55.788Z,12.73
2022-11-19T03:16:44.088Z,10.97
2022-11-19T03:19:26.460Z,10.10
2022-11-19T03:22:04.887Z,9.03
2022-11-19T03:24:41.184Z,10.37
2022-11-19T03:27:16.839Z,8.90
2022-11-19T03:29:50.677Z,11.40
2022-11-19T03:32:25.008Z,11.13
2022-11-19T03:35:03.637Z,10.37
2022-11-19T03:37:39.254Z,9.27
2022-11-19T03:40:13.205Z,10.10
2022-11-19T03:42:47.629Z,10.57
2022-11-19T03:45:24.587Z,11.67
2022-11-19T03:47:58.539Z,10.07
2022-11-19T03:50:36.641Z,11.60
2022-11-19T03:53:09.657Z,11.07
2022-11-19T03:55:45.657Z,12.03
2022-11-19T03:58:18.665Z,10.80
2022-11-19T04:00:53.829Z,12.77
2022-11-19T04:03:26.864Z,14.17
2022-11-19T04:06:01.608Z,12.50
2022-11-19T04:08:34.800Z,15.50
2022-11-19T04:13:40.504Z,11.63
2022-11-19T04:16:13.823Z,12.57
2022-11-19T04:18:47.310Z,13.20
2022-11-19T04:21:21.888Z,16.10
2022-11-19T04:23:56.077Z,15.93
2022-11-19T04:26:29.204Z,14.47
2022-11-19T04:29:02.307Z,12.07
2022-11-19T04:31:35.450Z,13.33
2022-11-19T04:34:08.625Z,14.40
2022-11-19T04:36:43.211Z,11.57
2022-11-19T04:39:16.881Z,12.93
2022-11-19T04:41:50.216Z,13.87
2022-11-19T04:44:23.355Z,12.40
2022-11-19T04:46:58.708Z,13.63
2022-11-19T04:49:31.557Z,13.40
2022-11-19T04:52:06.183Z,12.20
2022-11-19T04:54:40.531Z,10.60
2022-11-19T04:57:13.711Z,14.27
2022-11-19T04:59:47.844Z,13.80
2022-11-19T05:02:25.715Z,13.90
2022-11-19T05:04:59.018Z,11.43
2022-11-19T05:07:36.124Z,10.70
2022-11-19T05:10:09.811Z,11.90
2022-11-19T05:12:46.085Z,12.10
2022-11-19T05:15:19.431Z,10.87
2022-11-19T05:17:52.440Z,10.20
2022-11-19T05:20:29.026Z,14.60
2022-11-19T05:23:03.700Z,12.53
2022-11-19T05:25:36.680Z,11.77
2022-11-19T05:28:10.293Z,10.47
2022-11-19T05:30:49.251Z,11.87
2022-11-19T05:33:22.179Z,11.23
2022-11-19T05:36:01.108Z,14.07
2022-11-19T05:38:35.483Z,11.40
2022-11-19T05:41:08.562Z,11.23
2022-11-19T05:43:41.760Z,11.30
2022-11-19T05:46:14.889Z,10.83
2022-11-19T05:48:55.319Z,11.60
2022-11-19T05:51:28.398Z,12.03
2022-11-19T05:54:07.209Z,11.53
2022-11-19T05:56:40.189Z,8.97
2022-11-19T05:59:13.938Z,10.20
2022-11-19T06:01:47.513Z,10.00
2022-11-19T06:04:20.324Z,10.50
2022-11-19T06:06:53.362Z,11.57
2022-11-19T06:09:27.783Z,10.43
2022-11-19T06:12:01.205Z,9.90
2022-11-19T06:14:33.963Z,9.30
2022-11-19T06:17:12.737Z,11.10
2022-11-19T06:19:49.641Z,10.00
2022-11-19T06:22:24.177Z,10.87
2022-11-19T06:24:58.729Z,9.73
2022-11-19T06:27:31.612Z,12.67
2022-11-19T06:30:07.041Z,9.95
2022-11-19T06:32:39.888Z,12.23
2022-11-19T06:35:14.472Z,9.47
2022-11-19T06:37:47.317Z,9.13
2022-11-19T06:40:21.496Z,8.57
2022-11-19T06:42:54.295Z,10.33
2022-11-19T06:45:27.077Z,9.13
2022-11-19T06:47:59.882Z,10.37
2022-11-19T06:50:33.009Z,8.80
2022-11-19T06:53:05.707Z,9.90
2022-11-19T06:55:39.939Z,10.87
2022-11-19T06:58:13.410Z,10.23
2022-11-19T07:00:47.118Z,10.97
2022-11-19T07:03:20.263Z,13.33
2022-11-19T07:05:56.696Z,9.67
2022-11-19T07:08:33.612Z,11.23
2022-11-19T07:11:28.600Z,9.77
2022-11-19T07:14:03.443Z,9.53
2022-11-19T07:16:37.501Z,7.90
2022-11-19T07:19:13.024Z,9.07
2022-11-19T07:21:46.103Z,9.20
2022-11-19T07:24:19.655Z,11.90
2022-11-19T07:26:53.872Z,8.03
2022-11-19T07:29:26.841Z,11.37
2022-11-19T07:31:59.724Z,9.27
2022-11-19T07:34:32.570Z,9.17
2022-11-19T07:37:05.496Z,10.13
2022-11-19T07:39:38.413Z,9.87
2022-11-19T07:42:30.125Z,11.17
2022-11-19T07:45:06.253Z,9.33
2022-11-19T07:47:39.080Z,9.70
2022-11-19T07:50:13.279Z,10.67
2022-11-19T07:52:46.450Z,10.63
2022-11-19T07:55:19.272Z,11.40
2022-11-19T07:57:55.310Z,9.07
2022-11-19T08:00:28.173Z,11.73
2022-11-19T08:03:05.223Z,7.70
2022-11-19T08:05:41.063Z,8.10
2022-11-19T08:08:15.756Z,7.37
2022-11-19T08:10:48.539Z,10.27
2022-11-19T08:13:23.113Z,8.40
2022-11-19T08:16:01.517Z,6.80
2022-11-19T08:18:33.484Z,8.17
2022-11-19T08:21:06.973Z,8.97
2022-11-19T08:23:40.426Z,7.87
2022-11-19T08:26:13.441Z,8.17
2022-11-19T08:28:47.726Z,7.27
2022-11-19T08:31:20.551Z,7.93
2022-11-19T08:33:53.372Z,8.30
2022-11-19T08:36:26.085Z,9.57
2022-11-19T08:38:59.275Z,8.90
2022-11-19T08:41:51.324Z,9.53
2022-11-19T08:44:25.904Z,8.57
2022-11-19T08:46:58.608Z,8.20
2022-11-19T08:49:31.501Z,7.20
2022-11-19T08:52:06.857Z,8.27
2022-11-19T08:54:39.775Z,8.80
2022-11-19T08:57:13.419Z,8.87
2022-11-19T08:59:47.588Z,8.37
2022-11-19T09:02:22.703Z,9.07
2022-11-19T09:04:55.600Z,7.87
2022-11-19T09:07:29.089Z,8.97
2022-11-19T09:10:01.955Z,7.67
2022-11-19T09:12:34.739Z,7.87
2022-11-19T09:15:21.780Z,6.40
2022-11-19T09:17:54.845Z,6.90
2022-11-19T09:20:27.812Z,9.47
2022-11-19T09:23:00.546Z,8.17
2022-11-19T09:25:34.155Z,9.43
2022-11-19T09:28:07.067Z,7.27
2022-11-19T09:30:41.189Z,6.53
2022-11-19T09:33:14.526Z,6.40
2022-11-19T09:35:47.770Z,6.40
2022-11-19T09:38:20.761Z,7.73
2022-11-19T09:40:54.998Z,5.83
2022-11-19T09:43:34.137Z,7.83
2022-11-19T09:46:11.914Z,5.83
2022-11-19T09:48:47.650Z,8.30
2022-11-19T09:51:23.207Z,4.77
2022-11-19T09:53:59.159Z,6.27
2022-11-19T09:56:34.404Z,8.17
2022-11-19T09:59:12.508Z,5.50
2022-11-19T10:01:46.626Z,6.20
2022-11-19T10:04:22.482Z,4.67
2022-11-19T10:07:01.853Z,6.63
2022-11-19T10:09:45.998Z,4.53
2022-11-19T10:12:26.574Z,3.60
2022-11-19T10:15:04.603Z,4.27
2022-11-19T10:17:48.182Z,3.27
2022-11-19T10:20:24.362Z,6.47
2022-11-19T10:23:00.794Z,4.43
2022-11-19T10:25:37.057Z,4.80
2022-11-19T10:28:15.075Z,4.53
2022-11-19T10:30:52.903Z,4.87
2022-11-19T10:33:31.021Z,4.63
2022-11-19T10:36:06.110Z,5.77
2022-11-19T10:38:45.055Z,6.27
2022-11-19T10:41:27.735Z,5.20
2022-11-19T10:44:05.764Z,8.00
2022-11-19T10:46:38.779Z,3.73
2022-11-19T10:49:15.240Z,4.03
2022-11-19T10:51:48.555Z,4.10
2022-11-19T10:54:24.060Z,3.47
2022-11-19T10:56:57.524Z,4.87
2022-11-19T10:59:33.060Z,3.07
2022-11-19T11:02:27.756Z,4.93
2022-11-19T11:05:06.484Z,6.53
2022-11-19T11:07:55.199Z,6.20
2022-11-19T11:10:33.901Z,6.53
2022-11-19T11:13:29.583Z,6.03
2022-11-19T11:16:08.930Z,6.03
2022-11-19T11:18:44.564Z,6.87
2022-11-19T11:21:28.539Z,4.17
2022-11-19T11:24:06.285Z,6.87
2022-11-19T11:26:40.303Z,4.20
2022-11-19T11:29:31.490Z,5.67
2022-11-19T11:32:13.993Z,3.67
2022-11-19T11:34:46.951Z,5.60
2022-11-19T11:37:21.480Z,6.47
2022-11-19T11:39:55.353Z,5.13
2022-11-19T11:42:29.815Z,7.07
2022-11-19T11:45:03.370Z,6.30
2022-11-19T11:47:40.106Z,5.43
2022-11-19T11:50:16.314Z,5.93
2022-11-19T11:52:52.816Z,6.77
2022-11-19T11:55:33.206Z,6.40
2022-11-19T11:58:07.016Z,6.87
2022-11-19T12:00:40.989Z,6.47
2022-11-19T12:03:15.854Z,5.53
2022-11-19T12:06:00.165Z,8.27
2022-11-19T12:08:46.580Z,9.57
2022-11-19T12:11:24.185Z,6.03
2022-11-19T12:14:01.200Z,10.57
2022-11-19T12:16:40.254Z,7.47
2022-11-19T12:19:26.723Z,9.53
2022-11-19T12:22:05.721Z,7.73
2022-11-19T12:24:50.663Z,6.77
2022-11-19T12:27:27.512Z,8.83
2022-11-19T12:30:05.347Z,6.80
2022-11-19T12:32:54.031Z,6.97
2022-11-19T12:35:32.977Z,5.73
2022-11-19T12:38:31.329Z,5.33
2022-11-19T12:41:29.461Z,7.67
2022-11-19T12:44:04.598Z,7.50
2022-11-19T12:46:47.236Z,7.60
2022-11-19T12:49:32.593Z,9.73
2022-11-19T12:52:11.955Z,7.77
2022-11-19T12:54:51.917Z,6.80
2022-11-19T12:57:39.738Z,7.67
2022-11-19T13:00:18.711Z,7.80
2022-11-19T13:02:58.305Z,9.43
2022-11-19T13:05:37.623Z,6.97
2022-11-19T13:08:15.313Z,6.63
2022-11-19T13:10:52.497Z,8.80
2022-11-19T13:13:30.785Z,6.27
2022-11-19T13:16:06.589Z,7.97
2022-11-19T13:18:43.746Z,7.10
2022-11-19T13:21:21.010Z,6.83
2022-11-19T13:23:54.266Z,6.80
2022-11-19T13:26:29.244Z,4.57
2022-11-19T13:29:06.332Z,6.27
2022-11-19T13:31:46.743Z,5.83
2022-11-19T13:34:29.110Z,7.33
2022-11-19T13:37:04.125Z,7.33
2022-11-19T13:39:38.321Z,7.53
2022-11-19T13:42:29.322Z,7.93
2022-11-19T13:45:05.400Z,8.47
2022-11-19T13:47:42.560Z,9.23
2022-11-19T13:50:19.164Z,6.77
2022-11-19T13:52:55.646Z,8.57
2022-11-19T13:55:35.964Z,8.10
2022-11-19T13:58:26.896Z,7.93
2022-11-19T14:01:15.782Z,7.73
2022-11-19T14:03:56.674Z,10.60
2022-11-19T14:06:36.653Z,7.63
2022-11-19T14:09:16.852Z,7.40
2022-11-19T14:12:01.495Z,7.77
2022-11-19T14:15:04.431Z,10.57
2022-11-19T14:17:57.236Z,11.47
2022-11-19T14:20:57.538Z,11.27
2022-11-19T14:24:11.201Z,9.17
2022-11-19T14:27:15.824Z,7.77
2022-11-19T14:30:01.906Z,10.20
2022-11-19T14:32:46.434Z,9.23
2022-11-19T14:35:42.724Z,8.07
2022-11-19T14:38:37.295Z,11.30
2022-11-19T14:41:28.859Z,9.23
2022-11-19T14:44:10.455Z,8.57
2022-11-19T14:46:46.352Z,10.80
2022-11-19T14:49:35.304Z,10.37
2022-11-19T14:52:19.328Z,8.23
2022-11-19T14:54:55.090Z,9.57
2022-11-19T14:57:34.812Z,12.30
2022-11-19T15:00:32.359Z,11.37
2022-11-19T15:03:09.657Z,11.97
2022-11-19T15:05:44.035Z,12.20
2022-11-19T15:08:30.149Z,10.10
2022-11-19T15:11:07.625Z,12.07
2022-11-19T15:13:41.498Z,9.50
2022-11-19T15:16:18.170Z,11.90
2022-11-19T15:19:08.916Z,11.50
2022-11-19T15:21:49.100Z,10.87
2022-11-19T15:24:34.832Z,9.47
2022-11-19T15:27:14.443Z,10.80
2022-11-19T15:29:58.811Z,8.47
2022-11-19T15:32:39.988Z,8.00
2022-11-19T15:35:26.727Z,10.30
2022-11-19T15:38:02.962Z,9.00
2022-11-19T15:40:36.260Z,10.17
2022-11-19T15:43:12.960Z,12.00
2022-11-19T15:45:54.046Z,11.23
2022-11-19T15:48:33.613Z,9.00
2022-11-19T15:51:08.199Z,18.83
2022-11-19T15:53:57.985Z,9.50
2022-11-19T15:56:33.173Z,9.67
2022-11-19T15:59:07.927Z,7.03
2022-11-19T16:01:42.025Z,9.17
2022-11-19T16:04:24.129Z,11.00
2022-11-19T16:07:00.079Z,8.80
2022-11-19T16:09:32.955Z,10.40
2022-11-19T16:12:23.491Z,10.07
2022-11-19T16:15:15.512Z,10.47
2022-11-19T16:17:48.710Z,8.60
2022-11-19T16:20:25.537Z,8.30
2022-11-19T16:22:59.463Z,7.57
2022-11-19T16:25:35.015Z,8.07
2022-11-19T16:28:09.280Z,9.40
2022-11-19T16:30:46.991Z,8.73
2022-11-19T16:33:21.844Z,9.47
2022-11-19T16:36:11.943Z,9.00
2022-11-19T16:38:49.274Z,11.13
2022-11-19T16:41:41.162Z,8.20
2022-11-19T16:44:22.268Z,9.40
2022-11-19T16:46:55.790Z,9.50
2022-11-19T16:49:32.639Z,6.80
2022-11-19T16:52:07.677Z,5.40
2022-11-19T16:54:44.584Z,12.40
2022-11-19T16:57:19.143Z,10.17
2022-11-19T16:59:53.447Z,9.47
2022-11-19T17:02:29.487Z,10.83
2022-11-19T17:05:05.564Z,10.90
2022-11-19T17:07:43.242Z,11.10
2022-11-19T17:10:30.511Z,11.67
2022-11-19T17:13:04.314Z,10.10
2022-11-19T17:15:39.717Z,12.20
2022-11-19T17:18:16.636Z,10.63
2022-11-19T17:20:57.628Z,9.33
2022-11-19T17:23:32.981Z,9.47
2022-11-19T17:26:07.607Z,11.37
2022-11-19T17:28:42.199Z,10.57
2022-11-19T17:31:16.227Z,9.43
2022-11-19T17:33:52.682Z,11.43
2022-11-19T17:36:29.150Z,18.43
2022-11-19T17:39:03.247Z,10.87
2022-11-19T17:41:56.598Z,10.80
2022-11-19T17:44:34.743Z,9.73
2022-11-19T17:47:21.091Z,14.53
2022-11-19T17:49:57.181Z,14.87
2022-11-19T17:52:33.965Z,11.70
2022-11-19T17:55:19.734Z,9.03
2022-11-19T17:57:53.825Z,11.20
2022-11-19T18:00:29.541Z,12.43
2022-11-19T18:03:03.342Z,11.10
2022-11-19T18:05:46.878Z,12.10
2022-11-19T18:08:19.947Z,12.50
2022-11-19T18:10:54.089Z,12.30
2022-11-19T18:13:30.434Z,12.53
2022-11-19T18:16:06.085Z,13.70
2022-11-19T18:18:40.963Z,12.00
2022-11-19T18:21:15.187Z,11.57
2022-11-19T18:23:52.028Z,12.47
2022-11-19T18:26:26.390Z,11.50
2022-11-19T18:28:59.458Z,12.43
2022-11-19T18:31:32.266Z,14.43
2022-11-19T18:34:05.026Z,14.77
2022-11-19T18:36:40.964Z,13.83
2022-11-19T18:39:15.485Z,11.57
2022-11-19T18:41:49.639Z,14.10
2022-11-19T18:44:33.640Z,12.33
2022-11-19T18:47:10.206Z,12.53
2022-11-19T18:49:45.686Z,9.47
2022-11-19T18:52:18.619Z,11.70
2022-11-19T18:54:52.100Z,12.43
2022-11-19T18:57:28.238Z,11.83
2022-11-19T19:00:03.190Z,12.70
2022-11-19T19:02:37.097Z,10.50
2022-11-19T19:05:18.101Z,9.33
2022-11-19T19:07:51.387Z,11.83
2022-11-19T19:10:28.607Z,14.80
2022-11-19T19:13:02.052Z,11.37
2022-11-19T19:15:35.241Z,11.33
2022-11-19T19:18:11.281Z,11.10
2022-11-19T19:20:44.080Z,9.90
2022-11-19T19:23:18.869Z,11.13
2022-11-19T19:25:51.692Z,11.97
2022-11-19T19:28:29.009Z,12.90
2022-11-19T19:31:01.939Z,11.17
2022-11-19T19:33:35.804Z,13.07
2022-11-19T19:36:08.761Z,10.50
2022-11-19T19:38:41.719Z,11.70
2022-11-19T19:41:16.433Z,11.03
2022-11-19T19:43:53.435Z,11.90
2022-11-19T19:46:26.917Z,9.47
2022-11-19T19:49:00.220Z,8.57
2022-11-19T19:51:33.643Z,9.33
2022-11-19T19:54:06.850Z,12.30
2022-11-19T19:56:43.203Z,10.00
2022-11-19T19:59:18.058Z,11.30
2022-11-19T20:01:54.007Z,10.17
2022-11-19T20:04:27.029Z,11.03
2022-11-19T20:07:02.776Z,10.20
2022-11-19T20:09:39.754Z,11.43
2022-11-19T20:12:15.418Z,12.13
2022-11-19T20:14:50.436Z,14.63
2022-11-19T20:17:23.766Z,13.13
2022-11-19T20:19:58.953Z,11.73
2022-11-19T20:22:32.170Z,13.23
2022-11-19T20:25:08.450Z,11.53
2022-11-19T20:27:45.551Z,12.67
2022-11-19T20:30:20.128Z,12.43
2022-11-19T20:33:00.562Z,14.27
2022-11-19T20:35:36.767Z,11.90
2022-11-19T20:38:09.766Z,13.40
2022-11-19T20:40:42.977Z,11.33
2022-11-19T20:43:41.179Z,13.47
2022-11-19T20:46:20.862Z,12.83
2022-11-19T20:48:53.583Z,13.77
2022-11-19T20:51:26.562Z,11.83
2022-11-19T20:54:00.339Z,14.33
2022-11-19T20:56:35.575Z,15.47
2022-11-19T20:59:18.130Z,13.37
2022-11-19T21:01:53.547Z,16.23
2022-11-19T21:04:27.909Z,14.47
2022-11-19T21:07:01.947Z,13.30
2022-11-19T21:09:34.995Z,11.07
2022-11-19T21:12:07.934Z,17.20
2022-11-19T21:14:42.450Z,13.60
2022-11-19T21:17:16.565Z,15.30
2022-11-19T21:19:49.601Z,15.00
2022-11-19T21:22:22.593Z,13.63
2022-11-19T21:24:55.461Z,15.77
2022-11-19T21:27:28.138Z,17.43
2022-11-19T21:30:00.817Z,16.10
2022-11-19T21:32:34.982Z,16.47
2022-11-19T21:35:08.502Z,16.60
2022-11-19T21:37:41.184Z,17.03
2022-11-19T21:40:14.068Z,14.30
2022-11-19T21:42:49.008Z,16.90
2022-11-19T21:45:24.232Z,16.97
2022-11-19T21:47:59.789Z,17.90
2022-11-19T21:50:34.662Z,16.00
2022-11-19T21:53:07.702Z,15.93
2022-11-19T21:55:42.652Z,15.43
2022-11-19T21:58:16.525Z,13.57
2022-11-19T22:00:51.200Z,14.87
2022-11-19T22:03:25.315Z,14.50
2022-11-19T22:05:59.440Z,17.23
2022-11-19T22:08:32.370Z,16.13
2022-11-19T22:11:25.374Z,16.27
2022-11-19T22:13:59.609Z,16.37
2022-11-19T22:16:36.445Z,15.87
2022-11-19T22:19:12.025Z,15.93
2022-11-19T22:21:49.226Z,13.90
2022-11-19T22:24:22.272Z,17.37
2022-11-19T22:26:58.691Z,17.07
2022-11-19T22:29:31.931Z,16.53
2022-11-19T22:32:05.355Z,13.83
2022-11-19T22:34:42.137Z,15.57
2022-11-19T22:37:15.271Z,15.17
2022-11-19T22:39:48.483Z,14.83
2022-11-19T22:42:24.326Z,14.23
2022-11-19T22:44:57.295Z,16.03
2022-11-19T22:47:30.091Z,13.53
2022-11-19T22:50:04.216Z,14.87
2022-11-19T22:52:37.333Z,20.53
2022-11-19T22:55:12.366Z,16.27
2022-11-19T22:57:45.396Z,15.80
2022-11-19T23:00:37.118Z,16.23
2022-11-19T23:03:10.345Z,13.63
2022-11-19T23:05:46.770Z,13.87
2022-11-19T23:08:19.819Z,15.67
2022-11-19T23:10:57.847Z,14.53
2022-11-19T23:13:32.895Z,15.87
2022-11-19T23:16:08.072Z,14.47
2022-11-19T23:18:41.954Z,16.90
2022-11-19T23:21:17.535Z,17.03
2022-11-19T23:23:50.780Z,14.77
2022-11-19T23:26:25.960Z,12.23
2022-11-19T23:29:01.700Z,16.33
2022-11-19T23:31:35.530Z,17.47
2022-11-19T23:34:12.220Z,15.03
2022-11-19T23:36:49.713Z,11.60
2022-11-19T23:39:26.221Z,16.37
2022-11-19T23:41:59.142Z,13.77
2022-11-19T23:44:31.952Z,13.43
2022-11-19T23:47:06.675Z,13.40
2022-11-19T23:49:39.439Z,14.33
2022-11-19T23:52:13.785Z,16.33
2022-11-19T23:54:49.445Z,16.40
2022-11-19T23:57:22.295Z,17.67
2022-11-19T23:59:55.288Z,20.53
